Airfield :
LOGIN :

Register | Disclaimer

   EN    FR    IT 

 










Legend :    VFR   Marginal VFR   IFR   Intensive IFR   Very Intensive IFR
Visi :
Ceiling :
>= 8 km
>= 3000ft
5 to 8 km
1000 to 3000 ft
1500m to 5 km
500 to 1000 ft
800 to 1500m
200 to 500 ft
< 800m
< 200 ft
Symbols :   Thunderstorms  Fog  Heavy snow  Heavy precipitations  Wind > 20 kt
SIGMETs :     Misc.  Thunderstorms  Icing  Turbulence  Mountain Waves  Volcanic Ashes






- Airport Elevation : 1830 ft


EBLB - Butgenbach Elsenborn

CURRENT METAR :
  • 220655Z AUTO 19007KT 2400 BR OVC002/// 03/03 Q1005 AMB

EXPIRED METARs :
  • 220625Z AUTO 19007KT 1900 BR OVC002/// 03/03 Q1004 AMB
  • 220555Z AUTO 18006KT 1000 BR OVC002/// 03/03 Q1004 AMB
  • 220525Z AUTO 17007KT 1100 BR OVC002/// 03/03 Q1004 AMB
  • 220455Z AUTO 18009KT 1500 BR OVC002/// 03/03 Q1005 AMB
  • 220434Z AUTO 19008KT 2500 BR OVC002/// 03/03 Q1005 AMB
  • 220425Z AUTO 19007KT 3100 BR OVC003/// 03/03 Q1005 YLO

Expired Forecast.



MET'MAP, your aeronautical weather chart ! - Copyright ORBIFLY December 2007 - Disclaimer

ORBIFLY MET'MAP TEAM :

Programming & Development : Alexandra Zaïnal
Concept & Development : Baudouin d'Aumeries
Co-Development & Prog : Marc-Olivier Méhu
Technical & hardware support : Manuel Goepfert

Contact : metmap@orbifly.com




SOURCES & CREDITS :

   NOAA